createdAt,value
2024-05-09T00:01:50.654Z,9.16
2024-05-09T00:07:56.799Z,9.11
2024-05-09T00:14:22.432Z,8.99
2024-05-09T00:20:50.435Z,8.85
2024-05-09T00:27:17.476Z,8.78
2024-05-09T00:33:11.611Z,8.78
2024-05-09T00:39:38.632Z,8.73
2024-05-09T00:45:57.372Z,8.70
2024-05-09T00:52:02.454Z,8.70
2024-05-09T00:58:27.889Z,8.66
2024-05-09T01:04:51.207Z,8.59
2024-05-09T01:11:17.279Z,8.44
2024-05-09T01:24:09.544Z,8.04
2024-05-09T01:30:33.846Z,7.93
2024-05-09T01:37:13.076Z,7.82
2024-05-09T01:43:37.347Z,7.71
2024-05-09T01:50:01.974Z,7.57
2024-05-09T01:56:27.896Z,7.40
2024-05-09T02:02:52.444Z,7.25
2024-05-09T02:09:19.219Z,7.09
2024-05-09T02:15:47.774Z,6.76
2024-05-09T02:22:18.225Z,6.40
2024-05-09T02:28:42.538Z,6.06
2024-05-09T02:35:09.628Z,5.90
2024-05-09T02:41:36.922Z,5.79
2024-05-09T02:48:02.080Z,5.48
2024-05-09T02:54:28.386Z,5.19
2024-05-09T03:00:55.345Z,5.03
2024-05-09T03:07:22.178Z,4.87
2024-05-09T03:13:49.607Z,4.74
2024-05-09T03:20:20.574Z,4.69
2024-05-09T03:26:51.722Z,4.72
2024-05-09T03:32:58.736Z,4.78
2024-05-09T03:45:51.253Z,4.95
2024-05-09T03:52:17.253Z,5.06
2024-05-09T03:58:41.526Z,5.21
2024-05-09T04:05:08.367Z,6.10
2024-05-09T04:11:33.258Z,9.10
2024-05-09T04:17:51.259Z,12.03
2024-05-09T04:24:17.308Z,14.64
2024-05-09T04:30:38.607Z,17.00
2024-05-09T04:37:08.055Z,18.36
2024-05-09T04:43:35.515Z,19.82
2024-05-09T04:50:00.373Z,20.76
2024-05-09T04:56:26.515Z,21.21
2024-05-09T05:02:51.434Z,21.24
2024-05-09T05:09:24.386Z,21.09
2024-05-09T05:15:50.570Z,18.01
2024-05-09T05:21:57.217Z,15.59
2024-05-09T05:28:20.172Z,14.24
2024-05-09T05:34:25.756Z,13.39
2024-05-09T05:40:50.339Z,12.87
2024-05-09T05:47:16.412Z,12.33
2024-05-09T05:53:42.011Z,12.07
2024-05-09T06:00:09.792Z,12.00
2024-05-09T06:05:43.179Z,12.03
2024-05-09T06:11:17.454Z,12.26
2024-05-09T06:17:36.170Z,12.52
2024-05-09T06:23:57.630Z,12.67
2024-05-09T06:30:30.430Z,12.88
2024-05-09T06:36:56.176Z,13.12
2024-05-09T06:43:30.168Z,13.34
2024-05-09T06:49:17.432Z,13.56
2024-05-09T06:55:43.491Z,13.84
2024-05-09T07:01:49.968Z,14.03
2024-05-09T07:08:15.107Z,14.16
2024-05-09T07:14:42.717Z,14.33
2024-05-09T07:27:36.915Z,14.83
2024-05-09T07:34:02.649Z,15.09
2024-05-09T07:40:31.683Z,15.30
2024-05-09T07:53:53.511Z,15.72
2024-05-09T08:00:29.495Z,15.82
2024-05-09T08:06:29.481Z,15.88
2024-05-09T08:12:57.067Z,15.94
2024-05-09T08:19:22.146Z,15.93
2024-05-09T08:25:39.020Z,15.94
2024-05-09T08:32:03.278Z,15.83
2024-05-09T08:38:31.608Z,15.89
2024-05-09T08:44:49.375Z,15.99
2024-05-09T08:51:04.748Z,16.23
2024-05-09T08:57:27.579Z,16.27
2024-05-09T09:03:38.375Z,16.30
2024-05-09T09:10:05.559Z,16.34
2024-05-09T09:16:19.307Z,16.49
2024-05-09T09:22:43.692Z,16.66
2024-05-09T09:29:03.114Z,16.70
2024-05-09T09:35:32.949Z,16.84
2024-05-09T09:41:57.704Z,16.89
2024-05-09T09:48:22.554Z,16.90
2024-05-09T09:54:48.360Z,17.05
2024-05-09T10:01:13.377Z,17.29
2024-05-09T10:07:37.709Z,17.32
2024-05-09T10:14:04.807Z,17.54
2024-05-09T10:20:32.553Z,17.85
2024-05-09T10:26:57.396Z,17.89
2024-05-09T10:33:22.382Z,18.04
2024-05-09T10:39:46.734Z,18.43
2024-05-09T10:46:11.396Z,18.60
2024-05-09T10:52:16.800Z,18.30
2024-05-09T10:58:41.511Z,18.17
2024-05-09T11:05:08.514Z,18.09
2024-05-09T11:11:33.021Z,18.35
2024-05-09T11:18:00.733Z,18.62
2024-05-09T11:24:26.097Z,19.07
2024-05-09T11:30:51.057Z,19.27
2024-05-09T11:37:18.970Z,19.34
2024-05-09T11:43:43.823Z,19.43
2024-05-09T11:50:10.253Z,19.58
2024-05-09T11:56:37.207Z,19.60
2024-05-09T12:03:01.611Z,19.62
2024-05-09T12:09:26.997Z,19.81
2024-05-09T12:15:52.869Z,19.49
2024-05-09T12:22:18.417Z,19.32
2024-05-09T12:28:35.619Z,19.60
2024-05-09T12:34:52.671Z,19.52
2024-05-09T12:41:19.720Z,19.27
2024-05-09T12:47:48.379Z,18.82
2024-05-09T12:54:13.830Z,18.76
2024-05-09T13:00:44.190Z,18.98
2024-05-09T13:07:09.818Z,19.08
2024-05-09T13:13:34.187Z,19.25
2024-05-09T13:19:58.460Z,19.42
2024-05-09T13:26:22.911Z,19.16
2024-05-09T13:32:48.001Z,18.68
2024-05-09T13:39:12.298Z,18.68
2024-05-09T13:45:37.945Z,18.91
2024-05-09T13:52:03.936Z,19.08
2024-05-09T13:58:28.998Z,19.03
2024-05-09T14:04:56.759Z,19.00
2024-05-09T14:11:06.412Z,19.02
2024-05-09T14:17:11.011Z,18.96
2024-05-09T14:23:17.888Z,18.78
2024-05-09T14:29:37.187Z,18.78
2024-05-09T14:35:54.657Z,18.79
2024-05-09T14:42:10.859Z,18.75
2024-05-09T14:48:36.949Z,18.69
2024-05-09T14:55:00.976Z,18.63
2024-05-09T15:01:27.076Z,18.72
2024-05-09T15:07:11.574Z,18.89
2024-05-09T15:13:39.070Z,18.77
2024-05-09T15:19:46.390Z,18.65
2024-05-09T15:25:39.769Z,18.56
2024-05-09T15:31:56.017Z,18.56
2024-05-09T15:38:21.462Z,18.64
2024-05-09T15:44:41.855Z,18.77
2024-05-09T15:51:07.480Z,18.78
2024-05-09T15:57:02.785Z,18.70
2024-05-09T16:03:27.196Z,18.68
2024-05-09T16:09:42.706Z,18.60
2024-05-09T16:16:08.778Z,18.52
2024-05-09T16:22:34.861Z,18.38
2024-05-09T16:28:47.746Z,18.30
2024-05-09T16:35:12.067Z,18.25
2024-05-09T16:41:29.168Z,18.29
2024-05-09T16:47:54.791Z,18.88
2024-05-09T16:54:23.578Z,20.98
2024-05-09T17:00:25.594Z,22.38
2024-05-09T17:06:40.633Z,23.06
2024-05-09T17:13:08.609Z,23.49
2024-05-09T17:19:33.017Z,23.40
2024-05-09T17:25:40.291Z,22.97
2024-05-09T17:31:38.772Z,22.96
2024-05-09T17:38:03.072Z,22.11
2024-05-09T17:44:29.106Z,20.61
2024-05-09T17:50:48.345Z,19.46
2024-05-09T17:57:12.904Z,18.34
2024-05-09T18:03:38.241Z,17.49
2024-05-09T18:10:07.960Z,16.80
2024-05-09T18:16:38.088Z,16.18
2024-05-09T18:22:56.591Z,15.67
2024-05-09T18:29:22.433Z,15.22
2024-05-09T18:35:36.762Z,14.78
2024-05-09T18:41:44.976Z,14.38
2024-05-09T18:47:54.949Z,14.05
2024-05-09T18:54:25.894Z,13.71
2024-05-09T19:00:52.348Z,13.36
2024-05-09T19:07:27.730Z,13.00
2024-05-09T19:13:51.882Z,12.56
2024-05-09T19:20:06.062Z,12.15
2024-05-09T19:26:31.195Z,11.75
2024-05-09T19:32:54.607Z,11.36
2024-05-09T19:38:53.392Z,10.98
2024-05-09T19:45:17.667Z,10.65
2024-05-09T19:51:42.603Z,10.34
2024-05-09T19:58:07.317Z,10.10
2024-05-09T20:04:34.975Z,9.84
2024-05-09T20:11:01.584Z,9.60
2024-05-09T20:17:16.028Z,9.46
2024-05-09T20:23:40.447Z,9.34
2024-05-09T20:30:09.653Z,9.27
2024-05-09T20:36:27.904Z,9.17
2024-05-09T20:42:52.375Z,9.00
2024-05-09T20:49:19.289Z,8.92
2024-05-09T20:55:37.012Z,8.85
2024-05-09T21:02:02.135Z,8.75
2024-05-09T21:08:27.075Z,8.56
2024-05-09T21:14:53.145Z,8.27
2024-05-09T21:21:12.483Z,7.89
2024-05-09T21:27:39.421Z,7.53
2024-05-09T21:34:05.905Z,7.24
2024-05-09T21:40:35.215Z,7.04
2024-05-09T21:47:04.022Z,6.98
2024-05-09T21:53:29.799Z,6.94
2024-05-09T21:59:44.392Z,6.84
2024-05-09T22:06:10.027Z,6.72
2024-05-09T22:12:35.940Z,6.52
2024-05-09T22:19:01.758Z,6.29
2024-05-09T22:25:08.974Z,6.12
2024-05-09T22:31:33.192Z,6.05
2024-05-09T22:37:50.845Z,5.95
2024-05-09T22:44:07.802Z,5.85
2024-05-09T22:50:32.891Z,5.78
2024-05-09T22:57:08.132Z,5.75
2024-05-09T23:03:32.515Z,5.69
2024-05-09T23:09:58.984Z,5.64
2024-05-09T23:16:09.565Z,5.51
2024-05-09T23:22:35.002Z,5.34
2024-05-09T23:29:03.539Z,5.23
2024-05-09T23:35:11.487Z,5.19
2024-05-09T23:41:35.759Z,5.19
2024-05-09T23:47:52.060Z,5.22
2024-05-09T23:54:16.817Z,5.25
